createdAt,value
2019-02-11T00:01:48.784Z,8.14
2019-02-11T00:07:43.766Z,9.2
2019-02-11T00:13:38.811Z,11.02
2019-02-11T00:19:33.781Z,6.44
2019-02-11T00:25:28.873Z,10.68
2019-02-11T00:31:23.893Z,8.91
2019-02-11T00:37:18.789Z,11.94
2019-02-11T00:43:19.074Z,6.86
2019-02-11T00:49:08.869Z,9.67
2019-02-11T00:55:03.831Z,11.69
2019-02-11T01:00:58.838Z,11.51
2019-02-11T01:06:53.813Z,7.98
2019-02-11T01:12:48.819Z,11.6
2019-02-11T01:18:43.817Z,9.6
2019-02-11T01:24:38.855Z,4.72
2019-02-11T01:30:33.826Z,13.45
2019-02-11T01:36:28.830Z,5.71
2019-02-11T01:42:23.894Z,7.54
2019-02-11T01:48:18.854Z,7.6
2019-02-11T01:54:13.858Z,5.44
2019-02-11T02:00:08.883Z,8.32
2019-02-11T02:06:03.873Z,9.9
2019-02-11T02:11:58.846Z,8.06
2019-02-11T02:17:53.869Z,5.19
2019-02-11T02:23:48.868Z,5.2
2019-02-11T02:29:43.858Z,5.89
2019-02-11T02:35:38.856Z,7.18
2019-02-11T02:41:33.892Z,6.45
2019-02-11T02:47:28.863Z,5.09
2019-02-11T02:53:23.861Z,7.62
2019-02-11T02:59:18.905Z,6.63
2019-02-11T03:05:13.874Z,4.49
2019-02-11T03:11:08.874Z,6.49
2019-02-11T03:17:03.871Z,7.9
2019-02-11T03:22:58.877Z,7.98
2019-02-11T03:28:53.909Z,6.66
2019-02-11T03:34:48.908Z,7.7
2019-02-11T03:40:43.946Z,8.63
2019-02-11T03:46:38.904Z,7.43
2019-02-11T03:52:33.890Z,9.19
2019-02-11T03:58:28.908Z,7.79
2019-02-11T04:04:23.917Z,4.29
2019-02-11T04:10:18.900Z,8.31
2019-02-11T04:16:13.898Z,5.15
2019-02-11T04:22:08.945Z,6.9
2019-02-11T04:28:03.915Z,7.03
2019-02-11T04:33:58.957Z,5.57
2019-02-11T04:39:53.926Z,6.15
2019-02-11T04:45:48.914Z,4.91
2019-02-11T04:51:43.946Z,6.45
2019-02-11T04:57:38.929Z,8.35
2019-02-11T05:03:33.955Z,6.98
2019-02-11T05:09:28.970Z,7.81
2019-02-11T05:15:23.940Z,5.7
2019-02-11T05:21:18.961Z,10.63
2019-02-11T05:27:13.956Z,6.72
2019-02-11T09:18:09.880Z,5.14
2019-02-11T09:18:09.932Z,15.63
2019-02-11T09:18:09.962Z,15.63
2019-02-11T09:18:09.968Z,15.63
2019-02-11T09:18:10.005Z,15.63
2019-02-11T09:18:10.045Z,15.63
2019-02-11T09:18:10.059Z,15.63
2019-02-11T09:18:10.087Z,15.63
2019-02-11T09:18:10.108Z,15.63
2019-02-11T09:18:10.152Z,15.63
2019-02-11T09:18:10.175Z,15.63
2019-02-11T09:18:10.190Z,15.63
2019-02-11T09:18:10.220Z,15.63
2019-02-11T09:18:10.254Z,15.63
2019-02-11T09:18:10.261Z,15.63
2019-02-11T09:18:10.285Z,15.63
2019-02-11T09:18:10.327Z,15.63
2019-02-11T09:18:10.331Z,15.63
2019-02-11T09:18:10.372Z,15.63
2019-02-11T09:18:10.384Z,15.63
2019-02-11T09:18:10.413Z,15.63
2019-02-11T09:18:10.455Z,15.63
2019-02-11T09:18:10.473Z,15.63
2019-02-11T09:18:10.495Z,15.63
2019-02-11T09:18:10.505Z,15.63
2019-02-11T09:18:10.544Z,15.63
2019-02-11T09:18:10.606Z,15.63
2019-02-11T09:18:10.615Z,15.63
2019-02-11T09:18:10.617Z,15.63
2019-02-11T09:18:10.682Z,15.63
2019-02-11T09:18:10.683Z,15.63
2019-02-11T09:18:10.693Z,15.63
2019-02-11T09:18:10.712Z,15.63
2019-02-11T09:18:10.747Z,15.63
2019-02-11T09:18:10.777Z,15.63
2019-02-11T09:18:10.792Z,15.63
2019-02-11T09:18:10.844Z,15.63
2019-02-11T09:18:10.855Z,15.63
2019-02-11T09:18:10.896Z,15.63
2019-02-11T09:23:54.063Z,13.8
2019-02-11T09:29:49.082Z,16.36
2019-02-11T09:35:44.115Z,12.48
2019-02-11T09:41:39.113Z,13.44
2019-02-11T09:47:34.076Z,10.65
2019-02-11T09:53:29.073Z,12.32
2019-02-11T09:59:24.088Z,12.54
2019-02-11T10:05:19.081Z,13.2
2019-02-11T10:11:14.107Z,12
2019-02-11T10:17:09.075Z,15.06
2019-02-11T10:23:04.114Z,13.92
2019-02-11T10:28:59.154Z,14.45
2019-02-11T10:34:54.130Z,16.21
2019-02-11T10:40:49.102Z,24.51
2019-02-11T10:46:44.130Z,15.19
2019-02-11T10:52:39.104Z,12.16
2019-02-11T10:58:34.152Z,9.83
2019-02-11T11:04:29.135Z,5.4
2019-02-11T11:10:24.122Z,4.48
2019-02-11T11:16:19.114Z,6.37
2019-02-11T11:22:14.145Z,6.91
2019-02-11T11:28:09.133Z,5.5
2019-02-11T11:34:04.151Z,6.4
2019-02-11T11:39:59.135Z,4.43
2019-02-11T11:45:54.122Z,3.16
2019-02-11T11:51:49.148Z,2.05
2019-02-11T11:57:44.158Z,1.57
2019-02-11T12:03:39.161Z,1.75
2019-02-11T12:09:34.155Z,1.37
2019-02-11T12:15:29.197Z,1.4
2019-02-11T12:21:24.197Z,0.8
2019-02-11T12:27:19.170Z,7.16
2019-02-11T12:33:14.173Z,1.02
2019-02-11T12:39:09.199Z,0.55
2019-02-11T12:45:04.230Z,3.74
2019-02-11T12:50:59.189Z,4.24
2019-02-11T12:56:54.198Z,0.74
2019-02-11T13:02:49.253Z,5.7
2019-02-11T13:08:44.254Z,7.32
2019-02-11T13:14:39.212Z,3.31
2019-02-11T13:20:34.229Z,3.66
2019-02-11T13:26:29.243Z,2.31
2019-02-11T13:32:24.197Z,2.07
2019-02-11T13:38:19.250Z,5.12
2019-02-11T13:44:14.223Z,5.16
2019-02-11T13:50:09.243Z,3.06
2019-02-11T13:56:05.388Z,0.9
2019-02-11T14:01:59.222Z,1.35
2019-02-11T14:07:54.269Z,1.87
2019-02-11T14:14:01.104Z,1.98
2019-02-11T14:19:44.266Z,0.62
2019-02-11T14:25:44.660Z,0.51
2019-02-11T14:31:34.242Z,4.09
2019-02-11T14:37:29.295Z,0.66
2019-02-11T14:43:24.243Z,0.35
2019-02-11T14:49:19.268Z,1.3
2019-02-11T14:55:14.240Z,2.85
2019-02-11T15:01:09.246Z,2.31
2019-02-11T15:07:04.253Z,1.48
2019-02-11T15:12:59.274Z,1.32
2019-02-11T15:18:54.258Z,2.55
2019-02-11T15:24:49.247Z,1.51
2019-02-11T15:30:44.257Z,1.96
2019-02-11T15:36:39.259Z,3.26
2019-02-11T15:42:34.254Z,1.7
2019-02-11T15:48:29.269Z,0.9
2019-02-11T15:54:24.310Z,2.06
2019-02-11T16:00:19.300Z,4.22
2019-02-11T16:06:14.283Z,4.31
2019-02-11T16:12:09.316Z,4
2019-02-11T16:18:04.327Z,3.37
2019-02-11T16:23:59.289Z,6.2
2019-02-11T16:29:54.297Z,9.65
2019-02-11T16:35:49.303Z,6.79
2019-02-11T16:41:44.298Z,3.61
2019-02-11T16:47:39.298Z,2.7
2019-02-11T16:53:34.480Z,2.37
2019-02-11T16:59:29.327Z,1.36
2019-02-11T17:05:24.344Z,2.04
2019-02-11T17:11:19.300Z,1.54
2019-02-11T17:17:14.369Z,2.15
2019-02-11T17:23:09.327Z,4.67
2019-02-11T17:29:04.341Z,7.08
2019-02-11T17:34:59.319Z,9.85
2019-02-11T17:40:54.312Z,4.23
2019-02-11T17:46:49.335Z,4.95
2019-02-11T17:52:44.351Z,7.88
2019-02-11T17:58:39.318Z,4.65
2019-02-11T18:04:34.354Z,5.45
2019-02-11T18:10:29.348Z,12.28
2019-02-11T18:16:24.495Z,20.13
2019-02-11T18:22:19.401Z,15.58
2019-02-11T18:28:14.343Z,11.44
2019-02-11T18:34:09.439Z,12.42
2019-02-11T18:40:04.381Z,7.14
2019-02-11T18:45:59.359Z,11.9
2019-02-11T18:51:54.359Z,22.65
2019-02-11T18:57:49.386Z,14.68
2019-02-11T19:03:44.366Z,8.89
2019-02-11T19:09:39.397Z,13.47
2019-02-11T19:15:34.386Z,14.05
2019-02-11T19:21:29.424Z,13.85
2019-02-11T19:27:24.385Z,14.23
2019-02-11T19:33:19.396Z,10.02
2019-02-11T19:39:14.394Z,8.59
2019-02-11T19:45:09.394Z,12.59
2019-02-11T19:51:04.443Z,11.7
2019-02-11T19:56:59.429Z,7.72
2019-02-11T20:02:54.468Z,12.83
2019-02-11T20:08:49.382Z,6.49
2019-02-11T20:14:44.409Z,2.6
2019-02-11T20:20:39.436Z,1.62
2019-02-11T20:26:34.462Z,1.67
2019-02-11T20:32:29.428Z,2.71
2019-02-11T20:38:24.456Z,4.2
2019-02-11T20:44:19.429Z,3.59
2019-02-11T20:50:14.438Z,24.77
2019-02-11T20:56:09.439Z,28.39
2019-02-11T21:02:04.432Z,3.46
2019-02-11T21:07:59.443Z,3.08
2019-02-11T21:13:54.459Z,1.52
2019-02-11T21:19:49.445Z,1.99
2019-02-11T21:25:44.451Z,2.39
2019-02-11T21:31:39.447Z,3.3
2019-02-11T21:37:34.449Z,3.66
2019-02-11T21:43:29.483Z,6.5
2019-02-11T21:49:24.475Z,7.29
2019-02-11T21:55:19.451Z,3.43
2019-02-11T22:01:14.474Z,5.03
2019-02-11T22:07:09.453Z,5.45
2019-02-11T22:13:04.495Z,5.13
2019-02-11T22:18:59.493Z,8
2019-02-11T22:24:56.325Z,9.59
2019-02-11T22:30:49.490Z,19.01
2019-02-11T22:36:44.490Z,13.45
2019-02-11T22:42:39.508Z,7.65
2019-02-11T22:48:34.492Z,8.39
2019-02-11T22:54:29.519Z,3.39
2019-02-11T23:00:24.492Z,3.3
2019-02-11T23:06:19.495Z,3.24
2019-02-11T23:12:14.498Z,3.13
2019-02-11T23:18:09.568Z,2.75
2019-02-11T23:24:04.540Z,5.63
2019-02-11T23:29:59.557Z,2.99
2019-02-11T23:35:54.511Z,2.49
2019-02-11T23:41:49.514Z,2.92
2019-02-11T23:47:44.539Z,1.92
2019-02-11T23:53:39.552Z,1.92
2019-02-11T23:59:34.547Z,2.18
